createdAt,value
2023-03-10T00:00:01.367Z,69.45
2023-03-10T00:01:11.348Z,68.68
2023-03-10T00:02:15.181Z,60.53
2023-03-10T00:03:18.699Z,74.35
2023-03-10T00:04:22.701Z,72.22
2023-03-10T00:05:26.962Z,67.22
2023-03-10T00:06:33.778Z,66.05
2023-03-10T00:07:37.357Z,68.13
2023-03-10T00:08:41.201Z,53.22
2023-03-10T00:09:44.943Z,62.72
2023-03-10T00:10:48.542Z,60.38
2023-03-10T00:11:52.337Z,57.78
2023-03-10T00:12:55.864Z,85.15
2023-03-10T00:13:59.459Z,66.93
2023-03-10T00:15:02.920Z,77.38
2023-03-10T00:16:07.409Z,70.78
2023-03-10T00:17:11.004Z,66.28
2023-03-10T00:18:14.428Z,69.53
2023-03-10T00:19:17.826Z,81.20
2023-03-10T00:20:21.744Z,79.65
2023-03-10T00:21:27.770Z,70.43
2023-03-10T00:22:31.630Z,74.22
2023-03-10T00:23:37.476Z,77.22
2023-03-10T00:24:41.148Z,66.32
2023-03-10T00:25:44.507Z,71.35
2023-03-10T00:26:49.962Z,72.50
2023-03-10T00:27:53.748Z,65.57
2023-03-10T00:28:59.100Z,58.00
2023-03-10T00:30:03.125Z,66.47
2023-03-10T00:31:08.277Z,59.05
2023-03-10T00:32:13.132Z,58.38
2023-03-10T00:33:16.721Z,66.70
2023-03-10T00:34:20.108Z,65.93
2023-03-10T00:35:23.547Z,63.63
2023-03-10T00:36:28.519Z,69.70
2023-03-10T00:37:31.989Z,68.93
2023-03-10T00:38:36.050Z,66.97
2023-03-10T00:39:40.346Z,69.32
2023-03-10T00:40:43.873Z,75.03
2023-03-10T00:41:47.285Z,62.75
2023-03-10T00:42:51.209Z,67.75
2023-03-10T00:43:54.865Z,76.68
2023-03-10T00:44:58.700Z,54.17
2023-03-10T00:46:02.423Z,64.18
2023-03-10T00:47:06.902Z,65.68
2023-03-10T00:48:12.899Z,67.75
2023-03-10T00:49:17.731Z,68.18
2023-03-10T00:50:21.279Z,67.25
2023-03-10T00:51:24.783Z,61.15
2023-03-10T00:52:28.337Z,75.35
2023-03-10T00:53:32.298Z,76.57
2023-03-10T00:54:35.793Z,64.80
2023-03-10T00:55:39.652Z,72.40
2023-03-10T00:56:43.608Z,79.63
2023-03-10T00:57:47.230Z,69.20
2023-03-10T00:58:55.259Z,70.97
2023-03-10T00:59:59.345Z,75.97
2023-03-10T01:01:02.928Z,75.53
2023-03-10T01:02:07.198Z,70.78
2023-03-10T01:03:10.819Z,63.65
2023-03-10T01:04:15.936Z,63.00
2023-03-10T01:05:20.036Z,78.93
2023-03-10T01:06:23.720Z,65.18
2023-03-10T01:07:28.471Z,79.30
2023-03-10T01:08:32.330Z,62.25
2023-03-10T01:09:35.893Z,58.45
2023-03-10T01:10:39.739Z,62.53
2023-03-10T01:11:43.229Z,73.22
2023-03-10T01:12:47.113Z,63.88
2023-03-10T01:13:51.049Z,65.18
2023-03-10T01:14:54.955Z,49.05
2023-03-10T01:15:58.776Z,68.55
2023-03-10T01:17:05.032Z,73.40
2023-03-10T01:18:09.249Z,66.28
2023-03-10T01:19:12.958Z,75.65
2023-03-10T01:20:17.719Z,54.47
2023-03-10T01:21:23.535Z,62.38
2023-03-10T01:22:27.467Z,62.83
2023-03-10T01:23:31.449Z,57.20
2023-03-10T01:24:34.959Z,64.05
2023-03-10T01:25:38.790Z,74.20
2023-03-10T01:26:42.464Z,69.85
2023-03-10T01:27:46.240Z,64.70
2023-03-10T01:28:50.360Z,61.78
2023-03-10T01:29:54.296Z,69.85
2023-03-10T01:30:59.465Z,61.25
2023-03-10T01:32:03.362Z,70.03
2023-03-10T01:33:08.347Z,61.75
2023-03-10T01:34:13.240Z,63.90
2023-03-10T01:35:17.360Z,67.25
2023-03-10T01:36:23.279Z,62.42
2023-03-10T01:37:26.817Z,47.33
2023-03-10T01:38:30.803Z,64.15
2023-03-10T01:39:34.353Z,59.80
2023-03-10T01:40:38.409Z,62.80
2023-03-10T01:41:44.085Z,48.95
2023-03-10T01:42:47.614Z,59.03
2023-03-10T01:43:52.432Z,61.47
2023-03-10T01:45:06.745Z,60.22
2023-03-10T01:46:43.601Z,53.00
2023-03-10T01:47:52.399Z,61.55
2023-03-10T01:48:57.504Z,61.70
2023-03-10T01:50:01.558Z,62.00
2023-03-10T01:51:05.876Z,51.45
2023-03-10T01:52:17.386Z,76.65
2023-03-10T01:53:21.060Z,46.88
2023-03-10T01:54:27.948Z,75.28
2023-03-10T01:55:39.904Z,61.10
2023-03-10T01:56:43.924Z,52.85
2023-03-10T01:57:51.219Z,60.08
2023-03-10T01:58:55.156Z,67.25
2023-03-10T01:59:59.095Z,69.28
2023-03-10T02:01:06.352Z,71.82
2023-03-10T02:02:11.230Z,58.05
2023-03-10T02:03:24.138Z,61.70
2023-03-10T02:04:49.411Z,59.92
2023-03-10T02:06:07.448Z,77.88
2023-03-10T02:07:11.473Z,67.90
2023-03-10T02:08:15.520Z,78.90
2023-03-10T02:09:19.298Z,70.32
2023-03-10T02:10:22.799Z,72.97
2023-03-10T02:11:28.781Z,60.90
2023-03-10T02:12:32.739Z,68.30
2023-03-10T02:13:36.685Z,59.38
2023-03-10T02:14:40.683Z,60.08
2023-03-10T02:15:44.309Z,69.35
2023-03-10T02:16:48.256Z,58.40
2023-03-10T02:17:52.328Z,61.13
2023-03-10T02:18:56.409Z,75.93
2023-03-10T02:20:38.851Z,65.53
2023-03-10T02:22:04.023Z,66.03
2023-03-10T02:23:08.915Z,65.70
2023-03-10T02:24:33.336Z,65.88
2023-03-10T02:25:37.333Z,82.28
2023-03-10T02:26:41.103Z,69.72
2023-03-10T02:27:45.336Z,61.97
2023-03-10T02:28:49.591Z,73.20
2023-03-10T02:30:12.694Z,72.90
2023-03-10T02:31:16.856Z,72.10
2023-03-10T02:32:21.353Z,58.97
2023-03-10T02:33:27.393Z,73.70
2023-03-10T02:34:32.515Z,52.95
2023-03-10T02:35:36.697Z,66.07
2023-03-10T02:36:45.518Z,76.13
2023-03-10T02:37:51.362Z,57.53
2023-03-10T02:38:56.233Z,61.10
2023-03-10T02:40:00.040Z,63.47
2023-03-10T02:41:03.868Z,62.25
2023-03-10T02:42:08.474Z,58.47
2023-03-10T02:43:27.623Z,67.45
2023-03-10T02:44:50.036Z,60.22
2023-03-10T02:45:55.016Z,81.57
2023-03-10T02:47:00.722Z,66.00
2023-03-10T02:48:05.043Z,72.45
2023-03-10T02:49:10.964Z,73.70
2023-03-10T02:50:18.525Z,62.33
2023-03-10T02:51:27.625Z,74.30
2023-03-10T02:52:38.989Z,82.72
2023-03-10T02:53:42.532Z,68.43
2023-03-10T02:54:46.892Z,65.72
2023-03-10T02:55:50.939Z,65.55
2023-03-10T02:56:54.937Z,56.60
2023-03-10T02:57:58.989Z,81.95
2023-03-10T02:59:03.141Z,84.65
2023-03-10T03:00:09.692Z,68.53
2023-03-10T03:01:13.329Z,65.18
2023-03-10T03:02:18.302Z,69.15
2023-03-10T03:03:22.168Z,60.90
2023-03-10T03:04:25.746Z,64.03
2023-03-10T03:05:29.940Z,75.47
2023-03-10T03:06:34.138Z,77.43
2023-03-10T03:07:38.574Z,70.50
2023-03-10T03:08:43.099Z,83.72
2023-03-10T03:09:50.076Z,84.00
2023-03-10T03:10:53.909Z,68.15
2023-03-10T03:11:57.702Z,65.45
2023-03-10T03:13:01.980Z,60.45
2023-03-10T03:14:05.728Z,74.47
2023-03-10T03:15:09.910Z,69.00
2023-03-10T03:16:14.089Z,62.70
2023-03-10T03:17:19.140Z,61.17
2023-03-10T03:18:22.700Z,67.22
2023-03-10T03:19:29.740Z,59.40
2023-03-10T03:20:34.310Z,72.07
2023-03-10T03:21:37.872Z,72.72
2023-03-10T03:22:45.641Z,69.47
2023-03-10T03:23:49.848Z,58.90
2023-03-10T03:24:55.767Z,59.72
2023-03-10T03:25:59.297Z,76.43
2023-03-10T03:27:03.261Z,63.80
2023-03-10T03:28:08.298Z,63.53
2023-03-10T03:29:12.613Z,61.05
2023-03-10T03:30:22.106Z,60.80
2023-03-10T03:31:26.648Z,57.63
2023-03-10T03:32:45.011Z,54.35
2023-03-10T03:33:49.096Z,53.60
2023-03-10T03:34:53.432Z,49.80
2023-03-10T03:35:56.943Z,48.78
2023-03-10T03:37:00.393Z,52.72
2023-03-10T03:38:13.164Z,53.75
2023-03-10T03:39:17.997Z,53.15
2023-03-10T03:40:27.488Z,59.50
2023-03-10T03:41:32.010Z,52.10
2023-03-10T03:42:36.039Z,55.20
2023-03-10T03:43:39.586Z,57.45
2023-03-10T03:44:43.334Z,59.53
2023-03-10T03:45:48.100Z,47.50
2023-03-10T03:46:51.901Z,55.17
2023-03-10T03:47:56.372Z,57.25
2023-03-10T03:49:01.797Z,53.67
2023-03-10T03:50:07.873Z,55.10
2023-03-10T03:51:11.522Z,49.80
2023-03-10T03:52:18.202Z,59.75
2023-03-10T03:53:22.508Z,59.50
2023-03-10T03:54:26.167Z,56.50
2023-03-10T03:55:30.251Z,55.05
2023-03-10T03:56:34.205Z,54.75
2023-03-10T03:57:38.141Z,60.97
2023-03-10T03:58:42.463Z,56.63
2023-03-10T03:59:45.980Z,64.82
2023-03-10T04:00:51.747Z,54.63
2023-03-10T04:01:55.985Z,50.63
2023-03-10T04:03:00.575Z,61.50
2023-03-10T04:04:09.884Z,58.30
2023-03-10T04:05:14.090Z,49.67
2023-03-10T04:06:17.890Z,48.28
2023-03-10T04:07:22.625Z,53.63
2023-03-10T04:08:26.316Z,59.70
2023-03-10T04:09:30.771Z,54.75
2023-03-10T04:10:34.573Z,63.45
2023-03-10T04:11:38.446Z,54.20
2023-03-10T04:12:42.406Z,66.22
2023-03-10T04:13:46.326Z,69.22
2023-03-10T04:14:50.913Z,58.63
2023-03-10T04:16:01.037Z,45.47
2023-03-10T04:17:12.205Z,60.20
2023-03-10T04:18:16.149Z,63.45
2023-03-10T04:19:19.967Z,57.88
2023-03-10T04:20:27.263Z,63.00
2023-03-10T04:21:31.309Z,66.93
2023-03-10T04:22:36.732Z,59.92
2023-03-10T04:23:42.728Z,52.10
2023-03-10T04:24:48.821Z,63.45
2023-03-10T04:25:52.771Z,62.25
2023-03-10T04:26:56.868Z,61.78
2023-03-10T04:28:01.086Z,56.40
2023-03-10T04:29:04.616Z,60.97
2023-03-10T04:30:13.082Z,52.67
2023-03-10T04:31:20.464Z,68.78
2023-03-10T04:32:26.754Z,63.85
2023-03-10T04:33:31.008Z,54.35
2023-03-10T04:34:35.029Z,49.60
2023-03-10T04:35:43.042Z,58.35
2023-03-10T04:36:48.179Z,58.80
2023-03-10T04:37:52.034Z,68.45
2023-03-10T04:38:55.931Z,65.97
2023-03-10T04:40:08.873Z,60.33
2023-03-10T04:41:12.749Z,56.45
2023-03-10T04:42:19.638Z,70.93
2023-03-10T04:43:23.371Z,73.68
2023-03-10T04:44:31.384Z,69.65
2023-03-10T04:45:38.408Z,66.05
2023-03-10T04:46:42.285Z,55.42
2023-03-10T04:47:46.037Z,85.00
2023-03-10T04:48:50.041Z,77.68
2023-03-10T04:49:54.060Z,82.45
2023-03-10T04:51:02.222Z,83.28
2023-03-10T04:52:09.795Z,78.40
2023-03-10T04:53:13.747Z,81.15
2023-03-10T04:54:17.789Z,79.93
2023-03-10T04:55:21.321Z,72.10
2023-03-10T04:56:26.085Z,70.55
2023-03-10T04:57:30.193Z,44.58
2023-03-10T04:58:33.858Z,58.45
2023-03-10T04:59:38.675Z,64.47
2023-03-10T05:00:56.441Z,52.15
2023-03-10T05:02:05.803Z,63.35
2023-03-10T05:03:09.700Z,60.60
2023-03-10T05:04:13.352Z,58.83
2023-03-10T05:05:16.834Z,58.63
2023-03-10T05:06:23.085Z,54.53
2023-03-10T05:07:35.860Z,72.57
2023-03-10T05:08:39.763Z,56.47
2023-03-10T05:09:43.843Z,74.38
2023-03-10T05:10:48.735Z,64.15
2023-03-10T05:11:52.725Z,64.05
2023-03-10T05:12:56.366Z,62.35
2023-03-10T05:14:00.419Z,64.45
2023-03-10T05:15:05.390Z,58.30
2023-03-10T05:16:16.607Z,67.18
2023-03-10T05:17:22.653Z,56.05
2023-03-10T05:18:26.670Z,69.18
2023-03-10T05:19:30.604Z,63.45
2023-03-10T05:20:36.464Z,64.90
2023-03-10T05:21:39.945Z,63.25
2023-03-10T05:22:43.858Z,81.88
2023-03-10T05:23:48.089Z,57.80
2023-03-10T05:24:52.526Z,70.35
2023-03-10T05:25:55.949Z,77.65
2023-03-10T05:27:03.134Z,75.40
2023-03-10T05:28:07.318Z,58.97
2023-03-10T05:29:11.488Z,64.63
2023-03-10T05:30:35.312Z,67.65
2023-03-10T05:31:38.863Z,73.88
2023-03-10T05:32:47.891Z,68.30
2023-03-10T05:33:51.912Z,72.53
2023-03-10T05:34:55.995Z,55.80
2023-03-10T05:35:59.860Z,68.05
2023-03-10T05:37:03.810Z,64.55
2023-03-10T05:38:07.804Z,70.05
2023-03-10T05:39:11.700Z,75.45
2023-03-10T05:40:20.824Z,67.53
2023-03-10T05:41:24.913Z,88.10
2023-03-10T05:42:32.814Z,70.25
2023-03-10T05:43:36.972Z,58.42
2023-03-10T05:44:40.997Z,77.32
2023-03-10T05:45:45.168Z,71.78
2023-03-10T05:46:49.246Z,67.88
2023-03-10T05:47:53.120Z,75.45
2023-03-10T05:48:57.988Z,70.85
2023-03-10T05:50:02.873Z,70.68
2023-03-10T05:51:09.329Z,64.72
2023-03-10T05:52:13.242Z,62.40
2023-03-10T05:53:18.197Z,72.95
2023-03-10T05:54:22.092Z,62.50
2023-03-10T05:55:25.788Z,72.28
2023-03-10T05:56:29.748Z,73.55
2023-03-10T05:57:36.293Z,69.07
2023-03-10T05:58:40.069Z,71.10
2023-03-10T05:59:44.898Z,64.32
2023-03-10T06:00:48.860Z,73.68
2023-03-10T06:01:52.846Z,66.07
2023-03-10T06:02:56.865Z,84.82
2023-03-10T06:04:00.392Z,71.50
2023-03-10T06:05:04.698Z,73.20
2023-03-10T06:06:08.976Z,60.40
2023-03-10T06:07:12.501Z,71.95
2023-03-10T06:08:16.075Z,70.95
2023-03-10T06:09:19.921Z,55.10
2023-03-10T06:10:23.765Z,47.08
2023-03-10T06:11:27.671Z,59.40
2023-03-10T06:12:33.777Z,69.47
2023-03-10T06:13:37.638Z,70.95
2023-03-10T06:14:41.825Z,63.70
2023-03-10T06:15:45.692Z,56.08
2023-03-10T06:16:52.373Z,63.30
2023-03-10T06:17:56.407Z,61.65
2023-03-10T06:19:00.385Z,58.58
2023-03-10T06:20:04.906Z,72.20
2023-03-10T06:21:09.284Z,63.13
2023-03-10T06:22:13.165Z,75.25
2023-03-10T06:23:17.430Z,61.15
2023-03-10T06:24:21.484Z,69.13
2023-03-10T06:25:25.495Z,59.25
2023-03-10T06:26:29.369Z,54.38
2023-03-10T06:27:33.539Z,69.72
2023-03-10T06:28:38.466Z,50.90
2023-03-10T06:29:42.015Z,54.78
2023-03-10T06:30:45.416Z,67.20
2023-03-10T06:31:48.996Z,67.25
2023-03-10T06:32:52.860Z,59.50
2023-03-10T06:33:56.496Z,60.95
2023-03-10T06:35:00.407Z,57.28
2023-03-10T06:36:04.283Z,61.58
2023-03-10T06:37:08.161Z,57.85
2023-03-10T06:38:12.187Z,57.28
2023-03-10T06:39:16.162Z,59.38
2023-03-10T06:40:20.190Z,67.82
2023-03-10T06:41:24.366Z,78.88
2023-03-10T06:42:28.327Z,58.97
2023-03-10T06:43:32.906Z,70.03
2023-03-10T06:44:36.601Z,61.33
2023-03-10T06:45:45.601Z,69.07
2023-03-10T06:46:49.412Z,73.75
2023-03-10T06:47:52.910Z,67.18
2023-03-10T06:48:59.904Z,72.30
2023-03-10T06:50:04.037Z,57.95
2023-03-10T06:51:12.359Z,72.25
2023-03-10T06:52:15.754Z,69.25
2023-03-10T06:53:20.426Z,75.38
2023-03-10T06:54:23.893Z,82.55
2023-03-10T06:55:27.453Z,64.25
2023-03-10T06:56:31.026Z,69.50
2023-03-10T06:57:35.305Z,66.72
2023-03-10T06:58:39.408Z,60.53
2023-03-10T06:59:43.373Z,55.67
2023-03-10T07:00:47.318Z,65.55
2023-03-10T07:01:50.924Z,58.28
2023-03-10T07:02:54.897Z,54.47
2023-03-10T07:03:59.189Z,53.28
2023-03-10T07:05:02.872Z,66.00
2023-03-10T07:06:07.881Z,61.65
2023-03-10T07:07:11.934Z,71.88
2023-03-10T07:08:15.787Z,67.43
2023-03-10T07:09:19.722Z,61.78
2023-03-10T07:10:23.383Z,56.88
2023-03-10T07:11:27.018Z,66.00
2023-03-10T07:12:30.523Z,72.03
2023-03-10T07:13:34.054Z,65.38
2023-03-10T07:14:37.479Z,62.60
2023-03-10T07:15:41.541Z,63.05
2023-03-10T07:16:47.202Z,63.92
2023-03-10T07:17:51.408Z,60.85
2023-03-10T07:18:54.896Z,57.85
2023-03-10T07:19:58.717Z,64.65
2023-03-10T07:21:02.545Z,67.63
2023-03-10T07:22:06.193Z,51.58
2023-03-10T07:23:10.177Z,59.85
2023-03-10T07:24:13.732Z,57.78
2023-03-10T07:25:18.128Z,61.10
2023-03-10T07:26:22.067Z,65.35
2023-03-10T07:27:26.109Z,76.15
2023-03-10T07:28:30.097Z,68.65
2023-03-10T07:29:33.891Z,86.38
2023-03-10T07:30:38.730Z,69.97
2023-03-10T07:31:44.385Z,85.85
2023-03-10T07:32:48.407Z,77.82
2023-03-10T07:33:52.345Z,70.10
2023-03-10T07:34:56.243Z,72.88
2023-03-10T07:36:00.940Z,73.63
2023-03-10T07:37:04.591Z,60.97
2023-03-10T07:38:08.290Z,71.45
2023-03-10T07:39:11.752Z,69.72
2023-03-10T07:40:15.563Z,65.15
2023-03-10T07:41:20.315Z,69.72
2023-03-10T07:42:24.019Z,66.45
2023-03-10T07:43:27.972Z,81.45
2023-03-10T07:44:32.083Z,72.93
2023-03-10T07:45:36.515Z,75.78
2023-03-10T07:46:40.088Z,65.32
2023-03-10T07:47:44.031Z,64.60
2023-03-10T07:48:48.089Z,60.20
2023-03-10T07:49:52.026Z,72.28
2023-03-10T07:51:01.740Z,78.50
2023-03-10T07:52:05.862Z,63.35
2023-03-10T07:53:09.425Z,64.10
2023-03-10T07:54:13.480Z,46.15
2023-03-10T07:55:17.671Z,66.65
2023-03-10T07:56:21.616Z,72.63
2023-03-10T07:57:25.312Z,61.47
2023-03-10T07:58:28.759Z,62.25
2023-03-10T07:59:32.644Z,71.97
2023-03-10T08:00:36.284Z,66.28
2023-03-10T08:01:39.782Z,57.85
2023-03-10T08:02:43.757Z,66.47
2023-03-10T08:03:47.692Z,60.88
2023-03-10T08:04:51.583Z,52.53
2023-03-10T08:05:55.628Z,52.63
2023-03-10T08:07:02.586Z,52.08
2023-03-10T08:08:06.874Z,55.25
2023-03-10T08:09:10.705Z,53.38
2023-03-10T08:10:14.416Z,51.50
2023-03-10T08:11:18.333Z,44.58
2023-03-10T08:12:22.234Z,59.97
2023-03-10T08:13:25.784Z,47.75
2023-03-10T08:14:30.194Z,43.65
2023-03-10T08:15:34.318Z,44.88
2023-03-10T08:16:43.827Z,58.58
2023-03-10T08:17:47.446Z,40.10
2023-03-10T08:18:52.667Z,49.58
2023-03-10T08:19:56.573Z,54.67
2023-03-10T08:21:00.342Z,50.92
2023-03-10T08:22:04.366Z,49.90
2023-03-10T08:23:08.037Z,42.65
2023-03-10T08:24:12.566Z,41.97
2023-03-10T08:25:18.409Z,40.55
2023-03-10T08:26:22.634Z,39.20
2023-03-10T08:27:28.964Z,35.95
2023-03-10T08:28:33.730Z,45.22
2023-03-10T08:29:38.080Z,32.22
2023-03-10T08:30:57.044Z,37.17
2023-03-10T08:32:06.279Z,32.25
2023-03-10T08:33:11.060Z,39.58
2023-03-10T08:34:18.109Z,34.78
2023-03-10T08:35:22.114Z,42.25
2023-03-10T08:36:27.526Z,31.50
2023-03-10T08:37:31.514Z,38.80
2023-03-10T08:38:36.309Z,34.63
2023-03-10T08:39:40.896Z,27.77
2023-03-10T08:40:44.487Z,29.80
2023-03-10T08:41:50.400Z,30.45
2023-03-10T08:42:54.006Z,28.58
2023-03-10T08:43:57.999Z,27.35
2023-03-10T08:45:01.738Z,29.63
2023-03-10T08:46:08.323Z,36.00
2023-03-10T08:47:12.636Z,32.13
2023-03-10T08:48:16.217Z,30.70
2023-03-10T08:49:21.226Z,32.92
2023-03-10T08:50:25.385Z,30.73
2023-03-10T08:51:29.184Z,27.75
2023-03-10T08:52:33.369Z,26.35
2023-03-10T08:53:37.279Z,18.90
2023-03-10T08:54:41.257Z,29.00
2023-03-10T08:55:45.234Z,25.48
2023-03-10T08:56:49.078Z,20.05
2023-03-10T08:57:52.686Z,25.58
2023-03-10T08:58:59.991Z,22.95
2023-03-10T09:00:05.981Z,31.48
2023-03-10T09:01:09.656Z,22.63
2023-03-10T09:02:16.145Z,20.23
2023-03-10T09:03:19.828Z,25.70
2023-03-10T09:04:23.907Z,26.52
2023-03-10T09:05:28.726Z,16.48
2023-03-10T09:06:32.679Z,15.55
2023-03-10T09:07:36.823Z,21.08
2023-03-10T09:08:42.088Z,20.83
2023-03-10T09:09:45.804Z,21.05
2023-03-10T09:10:49.339Z,16.50
2023-03-10T09:11:53.374Z,21.80
2023-03-10T09:13:12.725Z,18.75
2023-03-10T09:15:25.226Z,20.85
2023-03-10T09:16:29.412Z,17.33
2023-03-10T09:17:33.057Z,18.52
2023-03-10T09:18:36.908Z,17.08
2023-03-10T09:19:40.313Z,14.85
2023-03-10T09:20:44.140Z,18.52
2023-03-10T09:21:48.948Z,13.88
2023-03-10T09:22:54.311Z,20.23
2023-03-10T09:23:57.897Z,24.83
2023-03-10T09:25:01.503Z,22.98
2023-03-10T09:26:04.986Z,21.05
2023-03-10T09:27:08.614Z,12.98
2023-03-10T09:28:12.561Z,18.67
2023-03-10T09:29:16.209Z,17.70
2023-03-10T09:30:19.722Z,14.02
2023-03-10T09:31:25.370Z,20.85
2023-03-10T09:32:29.117Z,14.18
2023-03-10T09:33:33.448Z,17.92
2023-03-10T09:34:37.547Z,17.23
2023-03-10T09:35:41.763Z,14.70
2023-03-10T09:36:48.214Z,14.77
2023-03-10T09:37:52.244Z,21.73
2023-03-10T09:38:56.226Z,14.52
2023-03-10T09:40:00.460Z,14.50
2023-03-10T09:41:14.657Z,13.75
2023-03-10T09:42:35.783Z,14.13
2023-03-10T09:43:43.435Z,11.77
2023-03-10T09:45:26.751Z,16.17
2023-03-10T09:47:03.329Z,15.07
2023-03-10T09:48:32.990Z,12.80
2023-03-10T09:49:37.365Z,15.32
2023-03-10T09:50:44.607Z,11.75
2023-03-10T09:51:50.292Z,14.32
2023-03-10T09:52:53.770Z,22.25
2023-03-10T09:54:19.443Z,18.63
2023-03-10T09:55:38.277Z,22.52
2023-03-10T09:56:47.184Z,20.30
2023-03-10T09:57:58.262Z,17.55
2023-03-10T09:59:25.298Z,27.40
2023-03-10T10:00:36.257Z,21.05
2023-03-10T10:01:44.806Z,20.02
2023-03-10T10:02:48.455Z,21.52
2023-03-10T10:03:53.971Z,24.73
2023-03-10T10:05:01.925Z,21.13
2023-03-10T10:06:07.920Z,21.38
2023-03-10T10:07:20.665Z,16.90
2023-03-10T10:09:03.609Z,22.02
2023-03-10T10:10:16.703Z,22.60
2023-03-10T10:11:20.601Z,14.30
2023-03-10T10:12:26.185Z,15.20
2023-03-10T10:13:31.058Z,15.02
2023-03-10T10:14:35.812Z,23.75
2023-03-10T10:15:42.590Z,17.65
2023-03-10T10:17:35.578Z,16.92
2023-03-10T10:18:43.961Z,22.50
2023-03-10T10:19:48.383Z,19.92
2023-03-10T10:20:59.751Z,17.75
2023-03-10T10:22:21.857Z,21.38
2023-03-10T10:23:48.431Z,16.63
2023-03-10T10:25:10.029Z,21.17
2023-03-10T10:26:18.847Z,18.98
2023-03-10T10:27:25.112Z,24.30
2023-03-10T10:28:51.107Z,22.27
2023-03-10T10:29:55.285Z,22.85
2023-03-10T10:31:21.464Z,18.63
2023-03-10T10:32:25.070Z,19.98
2023-03-10T10:33:28.811Z,19.75
2023-03-10T10:34:34.254Z,19.15
2023-03-10T10:35:40.204Z,22.77
2023-03-10T10:36:56.053Z,20.80
2023-03-10T10:38:14.245Z,28.48
2023-03-10T10:39:44.517Z,18.80
2023-03-10T10:41:52.400Z,27.80
2023-03-10T10:42:56.708Z,26.35
2023-03-10T10:44:08.523Z,19.30
2023-03-10T10:45:30.953Z,26.75
2023-03-10T10:46:34.736Z,24.45
2023-03-10T10:47:50.323Z,21.52
2023-03-10T10:49:26.891Z,28.23
2023-03-10T10:50:36.883Z,25.15
2023-03-10T10:51:40.855Z,24.40
2023-03-10T10:52:49.206Z,23.88
2023-03-10T10:53:53.186Z,25.27
2023-03-10T10:55:00.134Z,25.73
2023-03-10T10:56:21.268Z,23.08
2023-03-10T10:57:29.898Z,18.52
2023-03-10T10:58:37.927Z,20.75
2023-03-10T10:59:41.392Z,23.23
2023-03-10T11:00:45.455Z,23.02
2023-03-10T11:02:19.045Z,22.73
2023-03-10T11:03:44.891Z,19.42
2023-03-10T11:04:48.473Z,22.25
2023-03-10T11:05:52.454Z,20.73
2023-03-10T11:07:13.492Z,20.83
2023-03-10T11:08:33.830Z,20.55
2023-03-10T11:09:37.863Z,20.40
2023-03-10T11:10:41.865Z,15.43
2023-03-10T11:11:51.882Z,21.38
2023-03-10T11:13:07.545Z,17.77
2023-03-10T11:14:49.980Z,15.48
2023-03-10T11:15:59.793Z,18.70
2023-03-10T11:17:06.621Z,15.20
2023-03-10T11:18:23.745Z,17.52
2023-03-10T11:19:38.640Z,21.77
2023-03-10T11:21:13.850Z,17.80
2023-03-10T11:22:43.311Z,25.33
2023-03-10T11:24:07.833Z,18.73
2023-03-10T11:25:29.814Z,17.05
2023-03-10T11:26:48.331Z,17.55
2023-03-10T11:28:10.736Z,16.75
2023-03-10T11:29:25.789Z,19.83
2023-03-10T11:30:33.838Z,18.60
2023-03-10T11:31:41.279Z,17.98
2023-03-10T11:32:50.264Z,18.80
2023-03-10T11:34:02.244Z,19.02
2023-03-10T11:35:25.034Z,22.55
2023-03-10T11:36:57.172Z,20.80
2023-03-10T11:38:43.029Z,19.45
2023-03-10T11:40:08.263Z,21.95
2023-03-10T11:41:25.654Z,18.63
2023-03-10T11:42:36.769Z,17.50
2023-03-10T11:43:59.170Z,16.48
2023-03-10T11:45:07.275Z,19.48
2023-03-10T11:46:39.983Z,18.02
2023-03-10T11:48:12.621Z,22.02
2023-03-10T11:49:16.881Z,15.85
2023-03-10T11:51:01.557Z,18.25
2023-03-10T11:52:13.939Z,20.95
2023-03-10T11:53:38.698Z,21.60
2023-03-10T11:54:45.224Z,16.80
2023-03-10T11:55:49.261Z,20.65
2023-03-10T11:56:53.452Z,15.88
2023-03-10T11:57:59.706Z,20.67
2023-03-10T11:59:07.776Z,18.63
2023-03-10T12:00:47.485Z,15.55
2023-03-10T12:01:56.414Z,21.63
2023-03-10T12:03:21.214Z,16.23
2023-03-10T12:04:47.767Z,18.67
2023-03-10T12:05:57.002Z,14.68
2023-03-10T12:07:18.672Z,19.05
2023-03-10T12:08:23.614Z,16.48
2023-03-10T12:09:54.582Z,15.18
2023-03-10T12:10:58.252Z,14.27
2023-03-10T12:12:02.840Z,22.70
2023-03-10T12:13:06.467Z,21.35
2023-03-10T12:14:11.780Z,14.68
2023-03-10T12:15:30.931Z,20.70
2023-03-10T12:16:37.432Z,15.90
2023-03-10T12:17:41.014Z,15.35
2023-03-10T12:18:44.918Z,20.80
2023-03-10T12:20:14.406Z,18.55
2023-03-10T12:21:20.451Z,16.63
2023-03-10T12:22:35.069Z,10.48
2023-03-10T12:24:00.219Z,16.75
2023-03-10T12:25:04.039Z,17.88
2023-03-10T12:26:07.629Z,19.58
2023-03-10T12:27:11.264Z,15.63
2023-03-10T12:28:25.102Z,19.63
2023-03-10T12:29:35.018Z,14.98
2023-03-10T12:30:52.857Z,20.02
2023-03-10T12:31:57.129Z,21.08
2023-03-10T12:33:01.061Z,16.27
2023-03-10T12:34:25.485Z,14.35
2023-03-10T12:35:48.406Z,13.13
2023-03-10T12:36:53.730Z,15.70
2023-03-10T12:38:40.728Z,18.25
2023-03-10T12:39:48.124Z,11.80
2023-03-10T12:40:52.091Z,15.30
2023-03-10T12:42:23.708Z,11.27
2023-03-10T12:44:02.661Z,13.38
2023-03-10T12:45:19.718Z,13.40
2023-03-10T12:46:41.172Z,13.18
2023-03-10T12:47:49.769Z,15.85
2023-03-10T12:49:21.316Z,13.68
2023-03-10T12:50:34.777Z,17.67
2023-03-10T12:51:41.323Z,17.30
2023-03-10T12:52:45.594Z,16.35
2023-03-10T12:54:02.388Z,10.07
2023-03-10T12:55:28.772Z,14.68
2023-03-10T12:56:43.735Z,10.90
2023-03-10T12:58:14.513Z,18.90
2023-03-10T12:59:28.989Z,13.20
2023-03-10T13:00:59.791Z,14.18
2023-03-10T13:02:03.531Z,12.10
2023-03-10T13:03:30.483Z,13.55
2023-03-10T13:04:34.118Z,19.02
2023-03-10T13:05:42.854Z,15.70
2023-03-10T13:06:47.252Z,11.60
2023-03-10T13:07:55.396Z,16.30
2023-03-10T13:09:16.848Z,10.43
2023-03-10T13:10:24.640Z,13.50
2023-03-10T13:11:37.390Z,12.18
2023-03-10T13:12:51.901Z,8.93
2023-03-10T13:14:02.500Z,14.10
2023-03-10T13:15:08.780Z,14.63
2023-03-10T13:16:21.411Z,10.43
2023-03-10T13:17:30.213Z,14.27
2023-03-10T13:18:34.681Z,12.35
2023-03-10T13:19:38.580Z,11.80
2023-03-10T13:20:42.445Z,13.27
2023-03-10T13:21:46.354Z,10.75
2023-03-10T13:22:59.838Z,10.85
2023-03-10T13:24:23.996Z,15.88
2023-03-10T13:25:28.012Z,19.30
2023-03-10T13:26:31.669Z,9.57
2023-03-10T13:27:35.464Z,11.15
2023-03-10T13:28:39.826Z,10.88
2023-03-10T13:29:57.807Z,14.38
2023-03-10T13:31:18.948Z,10.32
2023-03-10T13:32:22.970Z,16.40
2023-03-10T13:33:28.673Z,15.27
2023-03-10T13:36:02.320Z,17.33
2023-03-10T13:37:11.420Z,13.77
2023-03-10T13:38:25.716Z,19.05
2023-03-10T13:39:29.574Z,12.68
2023-03-10T13:40:33.254Z,14.70
2023-03-10T13:41:40.570Z,16.50
2023-03-10T13:42:45.192Z,16.65
2023-03-10T13:43:49.838Z,12.50
2023-03-10T13:44:54.423Z,11.27
2023-03-10T13:46:01.918Z,19.10
